sensor_id;sensor_type;location;lat;lon;timestamp;pressure;altitude;pressure_sealevel;temperature;humidity
77079;BME280;66004;55.096;38.760;2023-07-31T00:01:32;99351.75;;;16.25;68.59
77079;BME280;66004;55.096;38.760;2023-07-31T00:03:58;99350.13;;;16.24;68.15
77079;BME280;66004;55.096;38.760;2023-07-31T00:06:23;99355.00;;;16.27;68.21
77079;BME280;66004;55.096;38.760;2023-07-31T00:08:49;99355.44;;;16.29;68.14
77079;BME280;66004;55.096;38.760;2023-07-31T00:11:14;99345.25;;;16.21;68.29
77079;BME280;66004;55.096;38.760;2023-07-31T00:13:40;99354.97;;;16.20;68.22
77079;BME280;66004;55.096;38.760;2023-07-31T00:16:05;99356.59;;;16.21;68.53
77079;BME280;66004;55.096;38.760;2023-07-31T00:18:31;99358.16;;;16.11;68.68
77079;BME280;66004;55.096;38.760;2023-07-31T00:20:56;99362.19;;;16.07;68.52
77079;BME280;66004;55.096;38.760;2023-07-31T00:23:22;99369.88;;;16.10;68.52
77079;BME280;66004;55.096;38.760;2023-07-31T00:25:47;99354.03;;;16.02;68.44
77079;BME280;66004;55.096;38.760;2023-07-31T00:28:13;99367.41;;;16.05;68.44
77079;BME280;66004;55.096;38.760;2023-07-31T00:30:38;99353.97;;;15.94;68.44
77079;BME280;66004;55.096;38.760;2023-07-31T00:33:04;99367.00;;;16.03;68.70
77079;BME280;66004;55.096;38.760;2023-07-31T00:35:30;99358.47;;;16.03;68.38
77079;BME280;66004;55.096;38.760;2023-07-31T00:37:57;99356.81;;;15.94;68.53
77079;BME280;66004;55.096;38.760;2023-07-31T00:40:23;99362.13;;;16.00;68.83
77079;BME280;66004;55.096;38.760;2023-07-31T00:42:48;99364.53;;;15.98;68.83
77079;BME280;66004;55.096;38.760;2023-07-31T00:45:14;99366.53;;;15.97;68.60
77079;BME280;66004;55.096;38.760;2023-07-31T00:47:39;99358.41;;;15.92;68.46
77079;BME280;66004;55.096;38.760;2023-07-31T00:50:06;99366.97;;;15.95;68.75
77079;BME280;66004;55.096;38.760;2023-07-31T00:52:32;99348.28;;;15.94;68.32
77079;BME280;66004;55.096;38.760;2023-07-31T00:54:58;99358.44;;;15.95;68.69
77079;BME280;66004;55.096;38.760;2023-07-31T00:57:23;99351.50;;;15.89;68.78
77079;BME280;66004;55.096;38.760;2023-07-31T00:59:49;99342.50;;;15.80;68.81
77079;BME280;66004;55.096;38.760;2023-07-31T01:02:14;99352.28;;;15.83;68.70
77079;BME280;66004;55.096;38.760;2023-07-31T01:04:42;99364.06;;;15.88;69.05
77079;BME280;66004;55.096;38.760;2023-07-31T01:07:14;99358.75;;;15.83;68.75
77079;BME280;66004;55.096;38.760;2023-07-31T01:10:02;99362.00;;;15.85;68.96
77079;BME280;66004;55.096;38.760;2023-07-31T01:12:30;99351.41;;;15.75;68.86
77079;BME280;66004;55.096;38.760;2023-07-31T01:15:07;99361.16;;;15.81;68.65
77079;BME280;66004;55.096;38.760;2023-07-31T01:17:36;99364.38;;;15.80;69.19
77079;BME280;66004;55.096;38.760;2023-07-31T01:20:05;99360.75;;;15.79;69.43
77079;BME280;66004;55.096;38.760;2023-07-31T01:27:53;99357.88;;;15.75;68.96
77079;BME280;66004;55.096;38.760;2023-07-31T01:30:27;99355.44;;;15.74;69.27
77079;BME280;66004;55.096;38.760;2023-07-31T01:32:59;99355.31;;;15.67;69.24
77079;BME280;66004;55.096;38.760;2023-07-31T01:35:27;99366.78;;;15.74;69.17
77079;BME280;66004;55.096;38.760;2023-07-31T01:37:53;99351.25;;;15.64;68.98
77079;BME280;66004;55.096;38.760;2023-07-31T01:40:19;99364.34;;;15.76;68.86
77079;BME280;66004;55.096;38.760;2023-07-31T01:42:44;99353.84;;;15.76;69.04
77079;BME280;66004;55.096;38.760;2023-07-31T01:45:10;99367.59;;;15.78;69.01
77079;BME280;66004;55.096;38.760;2023-07-31T01:47:36;99364.00;;;15.81;68.79
77079;BME280;66004;55.096;38.760;2023-07-31T01:50:01;99360.34;;;15.81;68.73
77079;BME280;66004;55.096;38.760;2023-07-31T01:52:27;99368.44;;;15.82;68.87
77079;BME280;66004;55.096;38.760;2023-07-31T01:54:53;99361.50;;;15.76;68.83
77079;BME280;66004;55.096;38.760;2023-07-31T01:57:18;99369.28;;;15.83;68.68
77079;BME280;66004;55.096;38.760;2023-07-31T01:59:44;99353.78;;;15.73;68.71
77079;BME280;66004;55.096;38.760;2023-07-31T02:02:10;99368.09;;;15.87;68.28
77079;BME280;66004;55.096;38.760;2023-07-31T02:04:36;99362.00;;;15.85;68.66
77079;BME280;66004;55.096;38.760;2023-07-31T02:07:01;99368.50;;;15.89;69.03
77079;BME280;66004;55.096;38.760;2023-07-31T02:09:26;99371.78;;;15.91;68.90
77079;BME280;66004;55.096;38.760;2023-07-31T02:11:52;99365.28;;;15.91;68.72
77079;BME280;66004;55.096;38.760;2023-07-31T02:14:17;99372.19;;;15.93;68.69
77079;BME280;66004;55.096;38.760;2023-07-31T02:16:43;99372.56;;;15.88;68.60
77079;BME280;66004;55.096;38.760;2023-07-31T02:19:08;99381.47;;;15.87;68.46
77079;BME280;66004;55.096;38.760;2023-07-31T02:21:34;99365.13;;;15.73;68.54
77079;BME280;66004;55.096;38.760;2023-07-31T02:23:59;99376.47;;;15.73;68.74
77079;BME280;66004;55.096;38.760;2023-07-31T02:26:25;99375.69;;;15.76;68.92
77079;BME280;66004;55.096;38.760;2023-07-31T02:28:50;99367.59;;;15.78;68.76
77079;BME280;66004;55.096;38.760;2023-07-31T02:31:15;99385.47;;;15.82;68.73
77079;BME280;66004;55.096;38.760;2023-07-31T02:33:41;99378.97;;;15.82;69.01
77079;BME280;66004;55.096;38.760;2023-07-31T02:36:06;99357.81;;;15.72;68.92
77079;BME280;66004;55.096;38.760;2023-07-31T02:38:32;99381.50;;;15.90;68.79
77079;BME280;66004;55.096;38.760;2023-07-31T02:40:57;99382.28;;;15.87;68.97
77079;BME280;66004;55.096;38.760;2023-07-31T02:43:23;99367.66;;;15.85;69.21
77079;BME280;66004;55.096;38.760;2023-07-31T02:45:52;99382.34;;;15.94;69.15
77079;BME280;66004;55.096;38.760;2023-07-31T02:48:18;99377.44;;;15.91;68.84
77079;BME280;66004;55.096;38.760;2023-07-31T02:50:44;99379.13;;;15.96;69.26
77079;BME280;66004;55.096;38.760;2023-07-31T02:53:09;99379.16;;;16.00;69.04
77079;BME280;66004;55.096;38.760;2023-07-31T02:55:35;99378.41;;;16.10;68.96
77079;BME280;66004;55.096;38.760;2023-07-31T02:58:00;99360.53;;;16.06;68.29
77079;BME280;66004;55.096;38.760;2023-07-31T03:00:26;99378.47;;;16.21;68.67
77079;BME280;66004;55.096;38.760;2023-07-31T03:02:51;99382.59;;;16.30;68.26
77079;BME280;66004;55.096;38.760;2023-07-31T03:05:17;99375.75;;;16.35;68.21
77079;BME280;66004;55.096;38.760;2023-07-31T03:07:42;99372.97;;;16.46;68.13
77079;BME280;66004;55.096;38.760;2023-07-31T03:10:08;99380.31;;;16.54;67.85
77079;BME280;66004;55.096;38.760;2023-07-31T03:12:34;99375.47;;;16.58;67.82
77079;BME280;66004;55.096;38.760;2023-07-31T03:14:59;99374.69;;;16.68;67.54
77079;BME280;66004;55.096;38.760;2023-07-31T03:17:25;99371.53;;;16.81;67.13
77079;BME280;66004;55.096;38.760;2023-07-31T03:19:50;99372.78;;;16.87;66.58
77079;BME280;66004;55.096;38.760;2023-07-31T03:22:15;99375.63;;;16.87;66.84
77079;BME280;66004;55.096;38.760;2023-07-31T03:24:41;99363.47;;;16.90;66.96
77079;BME280;66004;55.096;38.760;2023-07-31T03:27:06;99372.44;;;16.99;66.70
77079;BME280;66004;55.096;38.760;2023-07-31T03:29:32;99371.63;;;17.02;66.63
77079;BME280;66004;55.096;38.760;2023-07-31T03:31:57;99376.53;;;17.05;66.79
77079;BME280;66004;55.096;38.760;2023-07-31T03:34:24;99383.84;;;17.13;66.58
77079;BME280;66004;55.096;38.760;2023-07-31T03:36:49;99381.03;;;17.21;66.48
77079;BME280;66004;55.096;38.760;2023-07-31T03:39:15;99387.13;;;17.23;66.44
77079;BME280;66004;55.096;38.760;2023-07-31T03:41:40;99385.53;;;17.25;66.40
77079;BME280;66004;55.096;38.760;2023-07-31T03:44:06;99381.47;;;17.30;66.18
77079;BME280;66004;55.096;38.760;2023-07-31T03:46:31;99397.72;;;17.40;66.37
77079;BME280;66004;55.096;38.760;2023-07-31T03:48:57;99384.75;;;17.39;66.52
77079;BME280;66004;55.096;38.760;2023-07-31T03:51:22;99391.25;;;17.50;66.48
77079;BME280;66004;55.096;38.760;2023-07-31T03:53:48;99386.41;;;17.55;66.47
77079;BME280;66004;55.096;38.760;2023-07-31T03:56:13;99392.91;;;17.66;66.43
77079;BME280;66004;55.096;38.760;2023-07-31T03:58:39;99393.75;;;17.77;66.14
77079;BME280;66004;55.096;38.760;2023-07-31T04:01:04;99389.72;;;17.93;65.50
77079;BME280;66004;55.096;38.760;2023-07-31T04:03:30;99384.03;;;18.07;65.06
77079;BME280;66004;55.096;38.760;2023-07-31T04:05:55;99384.81;;;18.11;65.41
77079;BME280;66004;55.096;38.760;2023-07-31T04:08:22;99380.34;;;18.21;64.76
77079;BME280;66004;55.096;38.760;2023-07-31T04:10:48;99378.28;;;18.21;64.89
77079;BME280;66004;55.096;38.760;2023-07-31T04:13:13;99379.53;;;18.35;65.02
77079;BME280;66004;55.096;38.760;2023-07-31T04:15:39;99367.28;;;18.52;64.37
77079;BME280;66004;55.096;38.760;2023-07-31T04:18:05;99381.88;;;18.68;64.43
77079;BME280;66004;55.096;38.760;2023-07-31T04:20:30;99378.19;;;18.75;63.91
77079;BME280;66004;55.096;38.760;2023-07-31T04:22:56;99385.50;;;18.87;63.45
77079;BME280;66004;55.096;38.760;2023-07-31T04:25:22;99370.03;;;18.88;63.44
77079;BME280;66004;55.096;38.760;2023-07-31T04:27:47;99383.38;;;19.13;63.07
77079;BME280;66004;55.096;38.760;2023-07-31T04:30:13;99382.09;;;19.21;62.63
77079;BME280;66004;55.096;38.760;2023-07-31T04:32:38;99391.38;;;19.36;62.63
77079;BME280;66004;55.096;38.760;2023-07-31T04:35:04;99381.19;;;19.38;62.07
77079;BME280;66004;55.096;38.760;2023-07-31T04:37:29;99398.16;;;19.60;62.13
77079;BME280;66004;55.096;38.760;2023-07-31T04:39:55;99396.88;;;19.68;61.16
77079;BME280;66004;55.096;38.760;2023-07-31T04:42:20;99399.63;;;19.90;61.10
77079;BME280;66004;55.096;38.760;2023-07-31T04:44:46;99406.78;;;20.12;60.80
77079;BME280;66004;55.096;38.760;2023-07-31T04:47:12;99398.97;;;20.20;60.77
77079;BME280;66004;55.096;38.760;2023-07-31T04:49:37;99400.84;;;20.37;60.30
77079;BME280;66004;55.096;38.760;2023-07-31T04:52:03;99406.38;;;20.55;60.13
77079;BME280;66004;55.096;38.760;2023-07-31T04:54:29;99396.53;;;20.64;59.23
77079;BME280;66004;55.096;38.760;2023-07-31T04:56:54;99402.16;;;20.71;59.60
77079;BME280;66004;55.096;38.760;2023-07-31T04:59:20;99408.97;;;20.84;59.06
77079;BME280;66004;55.096;38.760;2023-07-31T05:01:45;99383.44;;;21.00;58.48
77079;BME280;66004;55.096;38.760;2023-07-31T05:04:13;99404.81;;;21.23;58.20
77079;BME280;66004;55.096;38.760;2023-07-31T05:06:40;99405.16;;;21.29;57.53
77079;BME280;66004;55.096;38.760;2023-07-31T05:09:05;99398.13;;;21.33;56.97
77079;BME280;66004;55.096;38.760;2023-07-31T05:11:31;99399.47;;;21.56;56.76
77079;BME280;66004;55.096;38.760;2023-07-31T05:13:56;99407.34;;;21.75;56.10
77079;BME280;66004;55.096;38.760;2023-07-31T05:16:21;99399.81;;;21.89;55.83
77079;BME280;66004;55.096;38.760;2023-07-31T05:18:47;99401.81;;;22.15;55.19
77079;BME280;66004;55.096;38.760;2023-07-31T05:21:12;99413.06;;;22.30;54.78
77079;BME280;66004;55.096;38.760;2023-07-31T05:23:38;99402.97;;;22.45;53.76
77079;BME280;66004;55.096;38.760;2023-07-31T05:26:04;99414.09;;;22.63;53.79
77079;BME280;66004;55.096;38.760;2023-07-31T05:28:30;99409.31;;;22.57;54.07
77079;BME280;66004;55.096;38.760;2023-07-31T05:31:03;99408.06;;;22.58;54.13
77079;BME280;66004;55.096;38.760;2023-07-31T05:33:28;99405.56;;;22.60;54.08
77079;BME280;66004;55.096;38.760;2023-07-31T05:35:54;99407.31;;;22.53;54.36
77079;BME280;66004;55.096;38.760;2023-07-31T05:38:19;99407.81;;;22.48;54.20
77079;BME280;66004;55.096;38.760;2023-07-31T05:40:45;99400.19;;;22.42;53.95
77079;BME280;66004;55.096;38.760;2023-07-31T05:43:11;99416.03;;;22.46;53.39
77079;BME280;66004;55.096;38.760;2023-07-31T05:45:37;99407.88;;;22.45;53.98
77079;BME280;66004;55.096;38.760;2023-07-31T05:48:03;99416.00;;;22.50;53.56
77079;BME280;66004;55.096;38.760;2023-07-31T05:50:30;99414.28;;;22.52;52.99
77079;BME280;66004;55.096;38.760;2023-07-31T05:52:55;99414.16;;;22.60;53.30
77079;BME280;66004;55.096;38.760;2023-07-31T05:55:21;99409.16;;;22.64;53.18
77079;BME280;66004;55.096;38.760;2023-07-31T05:57:46;99418.00;;;22.73;52.12
77079;BME280;66004;55.096;38.760;2023-07-31T06:00:13;99410.25;;;22.73;52.34
77079;BME280;66004;55.096;38.760;2023-07-31T06:02:39;99410.91;;;22.81;52.38
77079;BME280;66004;55.096;38.760;2023-07-31T06:05:05;99417.00;;;22.83;52.04
77079;BME280;66004;55.096;38.760;2023-07-31T06:07:33;99412.88;;;22.84;51.63
77079;BME280;66004;55.096;38.760;2023-07-31T06:09:59;99423.34;;;22.94;51.88
77079;BME280;66004;55.096;38.760;2023-07-31T06:12:34;99421.09;;;23.06;50.83
77079;BME280;66004;55.096;38.760;2023-07-31T06:15:00;99409.84;;;23.15;50.17
77079;BME280;66004;55.096;38.760;2023-07-31T06:17:25;99418.50;;;23.31;50.38
77079;BME280;66004;55.096;38.760;2023-07-31T06:19:57;99415.47;;;23.39;50.34
77079;BME280;66004;55.096;38.760;2023-07-31T06:22:22;99419.22;;;23.36;49.88
77079;BME280;66004;55.096;38.760;2023-07-31T06:24:48;99408.28;;;23.30;50.32
77079;BME280;66004;55.096;38.760;2023-07-31T06:27:13;99420.91;;;23.53;50.08
77079;BME280;66004;55.096;38.760;2023-07-31T06:29:39;99419.50;;;23.61;49.82
77079;BME280;66004;55.096;38.760;2023-07-31T06:32:04;99418.81;;;23.74;49.33
77079;BME280;66004;55.096;38.760;2023-07-31T06:34:30;99417.53;;;23.95;48.84
77079;BME280;66004;55.096;38.760;2023-07-31T06:36:58;99417.34;;;24.18;47.72
77079;BME280;66004;55.096;38.760;2023-07-31T06:39:23;99412.38;;;24.35;46.86
77079;BME280;66004;55.096;38.760;2023-07-31T06:41:49;99430.09;;;24.66;46.03
77079;BME280;66004;55.096;38.760;2023-07-31T06:44:15;99420.31;;;25.22;45.32
77079;BME280;66004;55.096;38.760;2023-07-31T06:46:42;99421.34;;;25.71;43.69
77079;BME280;66004;55.096;38.760;2023-07-31T06:49:08;99427.84;;;26.00;43.16
77079;BME280;66004;55.096;38.760;2023-07-31T06:51:34;99427.31;;;26.40;42.89
77079;BME280;66004;55.096;38.760;2023-07-31T06:54:01;99432.97;;;26.57;41.55
77079;BME280;66004;55.096;38.760;2023-07-31T06:56:26;99414.38;;;26.58;42.28
77079;BME280;66004;55.096;38.760;2023-07-31T06:58:52;99425.69;;;26.65;42.02
77079;BME280;66004;55.096;38.760;2023-07-31T07:01:18;99431.44;;;26.65;41.27
77079;BME280;66004;55.096;38.760;2023-07-31T07:03:44;99434.00;;;26.63;40.88
77079;BME280;66004;55.096;38.760;2023-07-31T07:06:09;99442.31;;;26.61;40.95
77079;BME280;66004;55.096;38.760;2023-07-31T07:08:34;99438.94;;;26.75;40.62
77079;BME280;66004;55.096;38.760;2023-07-31T07:11:00;99444.13;;;26.80;40.79
77079;BME280;66004;55.096;38.760;2023-07-31T07:13:26;99442.50;;;26.79;40.46
77079;BME280;66004;55.096;38.760;2023-07-31T07:15:52;99442.50;;;26.79;40.68
77079;BME280;66004;55.096;38.760;2023-07-31T07:18:19;99438.06;;;26.66;40.40
77079;BME280;66004;55.096;38.760;2023-07-31T07:20:50;99440.72;;;26.34;40.76
77079;BME280;66004;55.096;38.760;2023-07-31T07:23:19;99441.78;;;26.15;40.98
77079;BME280;66004;55.096;38.760;2023-07-31T07:25:45;99450.00;;;26.03;41.94
77079;BME280;66004;55.096;38.760;2023-07-31T07:28:11;99438.69;;;25.96;41.75
77079;BME280;66004;55.096;38.760;2023-07-31T07:30:37;99440.50;;;25.90;40.87
77079;BME280;66004;55.096;38.760;2023-07-31T07:33:03;99441.31;;;25.91;42.01
77079;BME280;66004;55.096;38.760;2023-07-31T07:35:28;99449.72;;;25.85;40.81
77079;BME280;66004;55.096;38.760;2023-07-31T07:37:54;99448.34;;;25.77;41.10
77079;BME280;66004;55.096;38.760;2023-07-31T07:40:20;99427.09;;;25.71;40.77
77079;BME280;66004;55.096;38.760;2023-07-31T07:42:46;99442.47;;;25.93;41.22
77079;BME280;66004;55.096;38.760;2023-07-31T07:45:12;99432.69;;;26.03;41.33
77079;BME280;66004;55.096;38.760;2023-07-31T07:47:40;99429.66;;;26.20;41.16
77079;BME280;66004;55.096;38.760;2023-07-31T07:50:06;99448.13;;;26.35;40.38
77079;BME280;66004;55.096;38.760;2023-07-31T07:52:32;99441.28;;;26.42;40.32
77079;BME280;66004;55.096;38.760;2023-07-31T07:54:57;99441.06;;;26.49;40.25
77079;BME280;66004;55.096;38.760;2023-07-31T07:57:23;99446.03;;;26.49;39.12
77079;BME280;66004;55.096;38.760;2023-07-31T07:59:48;99446.13;;;26.45;38.60
77079;BME280;66004;55.096;38.760;2023-07-31T08:02:14;99437.38;;;26.49;39.66
77079;BME280;66004;55.096;38.760;2023-07-31T08:04:39;99443.94;;;26.62;39.86
77079;BME280;66004;55.096;38.760;2023-07-31T08:07:05;99445.28;;;26.70;39.31
77079;BME280;66004;55.096;38.760;2023-07-31T08:09:30;99447.16;;;26.64;38.87
77079;BME280;66004;55.096;38.760;2023-07-31T08:11:56;99446.91;;;26.71;39.02
77079;BME280;66004;55.096;38.760;2023-07-31T08:14:27;99455.13;;;26.95;38.80
77079;BME280;66004;55.096;38.760;2023-07-31T08:16:52;99446.56;;;27.04;38.55
77079;BME280;66004;55.096;38.760;2023-07-31T08:19:18;99452.06;;;27.11;39.04
77079;BME280;66004;55.096;38.760;2023-07-31T08:21:43;99456.94;;;27.14;38.68
77079;BME280;66004;55.096;38.760;2023-07-31T08:24:09;99454.88;;;27.02;37.65
77079;BME280;66004;55.096;38.760;2023-07-31T08:26:34;99462.97;;;26.59;37.71
77079;BME280;66004;55.096;38.760;2023-07-31T08:28:59;99458.94;;;26.31;38.88
77079;BME280;66004;55.096;38.760;2023-07-31T08:31:25;99452.72;;;26.20;38.82
77079;BME280;66004;55.096;38.760;2023-07-31T08:33:52;99454.47;;;26.30;38.86
77079;BME280;66004;55.096;38.760;2023-07-31T08:36:17;99454.34;;;26.47;38.26
77079;BME280;66004;55.096;38.760;2023-07-31T08:38:43;99456.38;;;26.59;38.30
77079;BME280;66004;55.096;38.760;2023-07-31T08:41:08;99458.25;;;26.53;39.08
77079;BME280;66004;55.096;38.760;2023-07-31T08:43:35;99467.47;;;26.48;38.30
77079;BME280;66004;55.096;38.760;2023-07-31T08:46:01;99468.28;;;26.48;38.71
77079;BME280;66004;55.096;38.760;2023-07-31T08:48:28;99452.03;;;26.41;37.95
77079;BME280;66004;55.096;38.760;2023-07-31T08:50:54;99462.50;;;26.48;37.33
77079;BME280;66004;55.096;38.760;2023-07-31T08:53:20;99464.00;;;26.53;37.40
77079;BME280;66004;55.096;38.760;2023-07-31T08:55:46;99460.63;;;26.67;37.98
77079;BME280;66004;55.096;38.760;2023-07-31T08:58:13;99448.75;;;26.65;37.07
77079;BME280;66004;55.096;38.760;2023-07-31T09:00:40;99469.44;;;26.64;37.98
77079;BME280;66004;55.096;38.760;2023-07-31T09:03:12;99474.16;;;26.70;37.11
77079;BME280;66004;55.096;38.760;2023-07-31T09:05:39;99465.16;;;26.68;36.80
77079;BME280;66004;55.096;38.760;2023-07-31T09:08:07;99467.69;;;26.66;36.85
77079;BME280;66004;55.096;38.760;2023-07-31T09:10:34;99453.38;;;26.50;36.74
77079;BME280;66004;55.096;38.760;2023-07-31T09:13:00;99469.66;;;26.56;37.25
77079;BME280;66004;55.096;38.760;2023-07-31T09:15:27;99462.03;;;26.50;37.37
77079;BME280;66004;55.096;38.760;2023-07-31T09:18:03;99466.19;;;26.61;37.21
77079;BME280;66004;55.096;38.760;2023-07-31T09:20:29;99471.16;;;26.61;37.29
77079;BME280;66004;55.096;38.760;2023-07-31T09:22:55;99468.38;;;26.70;37.52
77079;BME280;66004;55.096;38.760;2023-07-31T09:25:25;99464.91;;;26.75;37.04
77079;BME280;66004;55.096;38.760;2023-07-31T09:28:01;99459.81;;;26.79;37.31
77079;BME280;66004;55.096;38.760;2023-07-31T09:30:26;99464.38;;;26.90;37.78
77079;BME280;66004;55.096;38.760;2023-07-31T09:33:02;99468.31;;;26.96;37.05
77079;BME280;66004;55.096;38.760;2023-07-31T09:35:30;99465.50;;;27.05;37.47
77079;BME280;66004;55.096;38.760;2023-07-31T09:38:05;99466.59;;;27.21;36.87
77079;BME280;66004;55.096;38.760;2023-07-31T09:40:33;99462.69;;;27.14;36.61
77079;BME280;66004;55.096;38.760;2023-07-31T09:43:03;99465.78;;;27.20;36.97
77079;BME280;66004;55.096;38.760;2023-07-31T09:45:29;99462.97;;;27.29;36.59
77079;BME280;66004;55.096;38.760;2023-07-31T09:47:56;99470.13;;;27.37;36.16
77079;BME280;66004;55.096;38.760;2023-07-31T09:50:23;99463.94;;;27.48;36.37
77079;BME280;66004;55.096;38.760;2023-07-31T09:52:50;99456.28;;;27.54;36.85
77079;BME280;66004;55.096;38.760;2023-07-31T09:55:17;99466.59;;;27.65;36.19
77079;BME280;66004;55.096;38.760;2023-07-31T09:57:48;99458.00;;;27.74;36.55
77079;BME280;66004;55.096;38.760;2023-07-31T10:00:18;99468.81;;;27.83;36.47
77079;BME280;66004;55.096;38.760;2023-07-31T10:02:47;99467.00;;;27.76;36.44
77079;BME280;66004;55.096;38.760;2023-07-31T10:05:16;99474.53;;;27.51;35.88
77079;BME280;66004;55.096;38.760;2023-07-31T10:07:45;99475.84;;;27.15;36.16
77079;BME280;66004;55.096;38.760;2023-07-31T10:10:15;99482.50;;;27.03;35.95
77079;BME280;66004;55.096;38.760;2023-07-31T10:12:40;99470.00;;;27.06;36.54
77079;BME280;66004;55.096;38.760;2023-07-31T10:15:08;99453.69;;;27.12;36.46
77079;BME280;66004;55.096;38.760;2023-07-31T10:17:34;99462.19;;;27.29;36.59
77079;BME280;66004;55.096;38.760;2023-07-31T10:20:02;99464.88;;;27.45;36.39
77079;BME280;66004;55.096;38.760;2023-07-31T10:22:30;99472.81;;;27.54;36.42
77079;BME280;66004;55.096;38.760;2023-07-31T10:24:58;99469.56;;;27.52;36.10
77079;BME280;66004;55.096;38.760;2023-07-31T10:27:24;99472.25;;;27.46;35.94
77079;BME280;66004;55.096;38.760;2023-07-31T10:29:50;99467.31;;;27.47;35.16
77079;BME280;66004;55.096;38.760;2023-07-31T10:32:17;99465.81;;;27.42;35.18
77079;BME280;66004;55.096;38.760;2023-07-31T10:34:44;99473.53;;;27.45;35.57
77079;BME280;66004;55.096;38.760;2023-07-31T10:37:27;99470.00;;;27.41;35.42
77079;BME280;66004;55.096;38.760;2023-07-31T10:40:00;99471.00;;;27.47;34.76
77079;BME280;66004;55.096;38.760;2023-07-31T10:42:37;99461.72;;;27.52;35.23
77079;BME280;66004;55.096;38.760;2023-07-31T10:45:08;99470.78;;;27.64;35.12
77079;BME280;66004;55.096;38.760;2023-07-31T10:47:44;99469.41;;;27.77;34.41
77079;BME280;66004;55.096;38.760;2023-07-31T10:52:48;99463.22;;;27.88;34.01
77079;BME280;66004;55.096;38.760;2023-07-31T10:55:33;99471.56;;;27.86;33.71
77079;BME280;66004;55.096;38.760;2023-07-31T10:58:10;99468.22;;;27.66;34.32
77079;BME280;66004;55.096;38.760;2023-07-31T11:00:37;99472.94;;;27.50;34.67
77079;BME280;66004;55.096;38.760;2023-07-31T11:03:15;99473.88;;;27.47;34.85
77079;BME280;66004;55.096;38.760;2023-07-31T11:10:38;99463.94;;;27.48;34.60
77079;BME280;66004;55.096;38.760;2023-07-31T11:13:06;99464.88;;;27.45;34.02
77079;BME280;66004;55.096;38.760;2023-07-31T11:15:31;99464.47;;;27.34;34.13
77079;BME280;66004;55.096;38.760;2023-07-31T11:17:57;99465.09;;;27.16;34.40
77079;BME280;66004;55.096;38.760;2023-07-31T11:20:25;99463.63;;;27.11;34.84
77079;BME280;66004;55.096;38.760;2023-07-31T11:22:51;99471.94;;;27.09;35.60
77079;BME280;66004;55.096;38.760;2023-07-31T11:25:18;99467.09;;;27.06;35.90
77079;BME280;66004;55.096;38.760;2023-07-31T11:27:43;99461.88;;;27.14;35.81
77079;BME280;66004;55.096;38.760;2023-07-31T11:30:09;99460.03;;;27.20;35.43
77079;BME280;66004;55.096;38.760;2023-07-31T11:32:38;99458.03;;;27.30;35.16
77079;BME280;66004;55.096;38.760;2023-07-31T11:35:04;99458.69;;;27.34;35.66
77079;BME280;66004;55.096;38.760;2023-07-31T11:37:44;99457.06;;;27.33;35.28
77079;BME280;66004;55.096;38.760;2023-07-31T11:40:10;99460.59;;;27.28;35.12
77079;BME280;66004;55.096;38.760;2023-07-31T11:42:36;99458.44;;;27.06;34.01
77079;BME280;66004;55.096;38.760;2023-07-31T11:45:03;99456.44;;;26.94;34.88
77079;BME280;66004;55.096;38.760;2023-07-31T11:47:29;99450.75;;;27.03;34.62
77079;BME280;66004;55.096;38.760;2023-07-31T11:49:55;99445.31;;;27.05;33.36
77079;BME280;66004;55.096;38.760;2023-07-31T11:52:21;99449.78;;;27.06;33.68
77079;BME280;66004;55.096;38.760;2023-07-31T11:54:49;99441.88;;;26.97;33.97
77079;BME280;66004;55.096;38.760;2023-07-31T11:57:15;99448.59;;;26.82;34.19
77079;BME280;66004;55.096;38.760;2023-07-31T11:59:41;99441.41;;;26.64;34.96
77079;BME280;66004;55.096;38.760;2023-07-31T12:02:07;99438.84;;;26.66;34.98
77079;BME280;66004;55.096;38.760;2023-07-31T12:04:33;99449.75;;;26.84;34.91
77079;BME280;66004;55.096;38.760;2023-07-31T12:07:00;99438.34;;;26.80;35.00
77079;BME280;66004;55.096;38.760;2023-07-31T12:09:26;99451.50;;;26.82;35.28
77079;BME280;66004;55.096;38.760;2023-07-31T12:11:51;99446.31;;;26.76;35.45
77079;BME280;66004;55.096;38.760;2023-07-31T12:16:46;99440.53;;;27.11;34.46
77079;BME280;66004;55.096;38.760;2023-07-31T12:19:11;99455.94;;;27.30;34.88
77079;BME280;66004;55.096;38.760;2023-07-31T12:21:37;99451.03;;;27.40;34.68
77079;BME280;66004;55.096;38.760;2023-07-31T12:24:03;99448.22;;;27.49;34.85
77079;BME280;66004;55.096;38.760;2023-07-31T12:26:34;99448.06;;;27.53;34.88
77079;BME280;66004;55.096;38.760;2023-07-31T12:28:59;99445.66;;;27.51;33.84
77079;BME280;66004;55.096;38.760;2023-07-31T12:31:27;99443.38;;;27.46;34.46
77079;BME280;66004;55.096;38.760;2023-07-31T12:33:55;99442.44;;;27.49;33.84
77079;BME280;66004;55.096;38.760;2023-07-31T12:36:22;99439.53;;;27.49;34.09
77079;BME280;66004;55.096;38.760;2023-07-31T12:38:50;99448.59;;;27.61;34.42
77079;BME280;66004;55.096;38.760;2023-07-31T12:41:16;99446.03;;;27.63;34.03
77079;BME280;66004;55.096;38.760;2023-07-31T12:43:43;99442.97;;;27.57;34.19
77079;BME280;66004;55.096;38.760;2023-07-31T12:46:09;99441.88;;;27.64;34.40
77079;BME280;66004;55.096;38.760;2023-07-31T12:48:36;99431.00;;;27.68;33.53
77079;BME280;66004;55.096;38.760;2023-07-31T12:51:02;99437.16;;;27.79;33.29
77079;BME280;66004;55.096;38.760;2023-07-31T12:53:28;99433.03;;;27.89;33.26
77079;BME280;66004;55.096;38.760;2023-07-31T12:55:54;99440.44;;;27.90;33.29
77079;BME280;66004;55.096;38.760;2023-07-31T12:58:20;99435.25;;;27.85;33.18
77079;BME280;66004;55.096;38.760;2023-07-31T13:00:45;99441.63;;;27.80;32.96
77079;BME280;66004;55.096;38.760;2023-07-31T13:03:11;99435.16;;;27.67;33.18